createdAt,value
2023-09-04T00:07:19.721Z,99.90
2023-09-04T00:17:23.293Z,99.90
2023-09-04T00:27:25.327Z,99.90
2023-09-04T00:37:28.757Z,99.90
2023-09-04T00:47:31.220Z,99.90
2023-09-04T00:57:35.475Z,99.90
2023-09-04T01:07:39.632Z,99.90
2023-09-04T01:17:44.233Z,99.90
2023-09-04T01:27:54.639Z,99.90
2023-09-04T01:37:57.438Z,99.90
2023-09-04T01:48:00.868Z,99.90
2023-09-04T01:58:03.067Z,99.90
2023-09-04T02:08:06.831Z,99.90
2023-09-04T02:18:08.994Z,99.90
2023-09-04T02:28:12.436Z,99.90
2023-09-04T02:38:14.515Z,99.90
2023-09-04T02:48:17.877Z,99.90
2023-09-04T02:58:21.151Z,99.90
2023-09-04T03:08:24.923Z,99.90
2023-09-04T03:18:27.219Z,99.90
2023-09-04T03:28:30.630Z,99.90
2023-09-04T03:38:32.695Z,99.90
2023-09-04T03:48:36.235Z,99.90
2023-09-04T03:58:38.298Z,99.90
2023-09-04T04:08:41.745Z,99.90
2023-09-04T04:18:43.779Z,99.90
2023-09-04T04:28:47.181Z,99.90
2023-09-04T04:38:49.218Z,99.90
2023-09-04T04:48:52.715Z,99.90
2023-09-04T04:58:54.784Z,99.90
2023-09-04T05:08:58.200Z,99.90
2023-09-04T05:19:00.262Z,99.90
2023-09-04T05:29:03.662Z,99.90
2023-09-04T05:39:05.940Z,99.90
2023-09-04T05:49:09.361Z,99.90
2023-09-04T05:59:11.424Z,99.90
2023-09-04T06:09:14.770Z,99.90
2023-09-04T06:19:16.779Z,99.90
2023-09-04T06:29:20.366Z,99.90
2023-09-04T06:39:23.138Z,99.90
2023-09-04T06:49:26.563Z,99.90
2023-09-04T06:59:28.578Z,99.90
2023-09-04T07:09:31.959Z,99.90
2023-09-04T07:19:33.983Z,99.90
2023-09-04T07:29:37.399Z,99.90
2023-09-04T07:39:39.443Z,99.90
2023-09-04T07:49:42.990Z,99.90
2023-09-04T07:59:45.009Z,99.90
2023-09-04T08:09:48.404Z,99.90
2023-09-04T08:19:50.552Z,99.90
2023-09-04T08:29:54.149Z,99.90
2023-09-04T08:39:56.336Z,99.90
2023-09-04T08:50:02.853Z,99.90
2023-09-04T09:00:05.941Z,99.90
2023-09-04T09:10:14.095Z,99.90
2023-09-04T09:20:30.302Z,98.00
2023-09-04T09:30:39.022Z,93.80
2023-09-04T09:40:41.042Z,93.50
2023-09-04T09:50:44.459Z,93.40
2023-09-04T10:00:46.718Z,90.10
2023-09-04T10:10:52.690Z,90.30
2023-09-04T10:20:56.892Z,91.40
2023-09-04T10:31:02.341Z,90.20
2023-09-04T10:41:06.582Z,90.20
2023-09-04T10:51:28.348Z,90.60
2023-09-04T11:01:38.120Z,88.40
2023-09-04T11:11:41.749Z,90.40
2023-09-04T11:21:44.944Z,91.50
2023-09-04T11:42:11.329Z,92.60
2023-09-04T11:52:16.428Z,93.60
2023-09-04T12:02:18.488Z,94.10
2023-09-04T12:12:22.290Z,94.60
2023-09-04T12:22:24.321Z,95.40
2023-09-04T12:32:27.790Z,95.60
2023-09-04T12:42:29.883Z,96.00
2023-09-04T12:52:33.679Z,96.30
2023-09-04T13:02:35.882Z,96.50
2023-09-04T13:12:39.344Z,97.30
2023-09-04T13:22:42.258Z,98.00
2023-09-04T13:32:45.668Z,98.20
2023-09-04T13:42:47.703Z,98.50
2023-09-04T13:52:51.043Z,98.80
2023-09-04T14:02:53.076Z,98.40
2023-09-04T14:12:56.969Z,98.30
2023-09-04T14:22:58.996Z,97.40
2023-09-04T14:33:02.515Z,97.10
2023-09-04T14:43:04.997Z,96.50
2023-09-04T14:53:08.467Z,95.90
2023-09-04T15:03:10.607Z,95.10
2023-09-04T15:13:14.127Z,94.40
2023-09-04T15:23:16.116Z,93.70
2023-09-04T15:33:19.522Z,93.90
2023-09-04T15:43:23.068Z,92.70
2023-09-04T15:53:26.484Z,92.80
2023-09-04T16:03:28.620Z,92.00
2023-09-04T16:13:32.042Z,91.70
2023-09-04T16:24:04.658Z,92.80
2023-09-04T16:34:07.993Z,93.40
2023-09-04T16:44:11.595Z,93.80
2023-09-04T16:54:15.189Z,94.70
2023-09-04T17:04:18.024Z,95.60
2023-09-04T17:14:50.599Z,95.80
2023-09-04T17:24:52.660Z,96.30
2023-09-04T17:34:56.071Z,97.20
2023-09-04T17:44:58.198Z,97.60
2023-09-04T17:55:01.623Z,98.40
2023-09-04T18:05:04.039Z,98.20
2023-09-04T18:15:11.599Z,98.30
2023-09-04T19:08:49.861Z,99.90
2023-09-04T19:41:04.420Z,99.90
2023-09-04T19:51:06.457Z,99.90
2023-09-04T20:35:15.258Z,99.90
2023-09-04T20:45:18.779Z,99.90
2023-09-04T20:55:20.954Z,99.90
2023-09-04T21:05:24.348Z,99.90
2023-09-04T21:15:26.590Z,99.90
2023-09-04T21:25:32.421Z,99.90
2023-09-04T21:35:34.407Z,99.90
2023-09-04T21:45:37.719Z,99.90
2023-09-04T21:55:39.764Z,99.90
2023-09-04T22:05:44.543Z,99.90
2023-09-04T22:15:46.523Z,99.90
2023-09-04T22:25:49.909Z,99.90
2023-09-04T22:35:51.880Z,99.90
2023-09-04T22:45:55.269Z,99.90
2023-09-04T22:55:57.234Z,99.90
2023-09-04T23:06:00.573Z,99.90
2023-09-04T23:16:02.550Z,99.90
2023-09-04T23:26:05.941Z,99.90
2023-09-04T23:36:08.582Z,99.90
2023-09-04T23:46:12.978Z,99.90
2023-09-04T23:56:14.916Z,99.90
